Date,TemperatureHighF,TemperatureAvgF,TemperatureLowF,DewpointHighF,DewpointAvgF,DewpointLowF,HumidityHigh,HumidityAvg,HumidityLow,PressureMaxIn,PressureMinIn,WindSpeedMaxMPH,WindSpeedAvgMPH,GustSpeedMaxMPH,PrecipitationSumIn
2014-1-1,65,61,58,64,60,55,98,94,84,29.97,29.78,12,4,12,0.04
2014-1-2,83,68,59,74,66,54,99,94,66,29.78,29.54,21,4,21,0.27
2014-1-3,59,48,43,54,37,25,87,68,45,29.98,29.66,24,8,24,0.00
2014-1-4,69,56,45,58,51,40,95,85,65,29.95,29.79,11,3,11,0.00
2014-1-5,59,58,57,58,57,56,96,96,95,29.81,29.72,5,2,5,0.00
2014-1-6,79,60,43,68,48,22,99,68,42,30.25,29.92,24,8,24,0.00
2014-1-7,51,40,33,31,21,9,77,49,24,30.36,30.22,21,8,21,0.00
2014-1-8,68,53,36,54,44,29,90,74,53,30.33,30.23,18,6,18,0.00
2014-1-9,70,64,56,67,62,53,99,91,79,30.26,30.16,20,6,20,0.06
2014-1-10,84,73,68,74,68,66,99,87,57,30.18,30.02,13,4,13,0.02
2014-1-11,87,75,67,73,68,65,99,84,51,30.05,29.85,23,4,25,0.56
2014-1-12,71,64,56,66,51,38,99,67,32,30.16,29.94,15,6,15,0.01
2014-1-13,82,72,50,66,60,49,99,70,51,29.94,29.76,14,4,14,0.00
2014-1-14,75,68,58,68,64,56,95,86,67,29.81,29.68,17,3,17,0.01
2014-1-15,67,58,51,56,49,40,99,75,45,29.83,29.71,14,3,14,0.01
2014-1-16,58,50,41,51,31,18,97,52,24,29.93,29.73,21,5,21,0.07
2014-1-17,68,51,36,48,36,29,87,60,26,29.98,29.87,10,2,10,0.00
2014-1-18,58,51,40,51,30,15,90,50,21,30.04,29.85,20,5,20,0.00
2014-1-19,69,53,37,53,43,31,94,72,43,29.98,29.88,14,3,14,0.00
2014-1-20,74,58,46,56,47,39,99,73,32,29.92,29.80,11,2,11,0.00
2014-1-21,74,62,54,60,55,44,99,81,51,29.80,29.57,23,5,23,0.20
2014-1-22,56,47,39,43,29,19,77,50,26,29.95,29.67,19,5,19,0.00
2014-1-23,65,48,36,39,30,19,85,55,22,30.13,29.92,14,4,14,0.00
2014-1-24,59,49,43,38,31,16,75,53,22,30.24,30.05,17,6,17,0.00
2014-1-25,73,56,43,50,44,36,95,68,38,30.05,29.79,17,3,17,0.00
2014-1-26,71,61,53,61,56,46,96,84,63,29.84,29.76,8,2,8,0.01
2014-1-27,78,66,61,67,62,60,99,90,64,29.81,29.70,10,2,10,0.32
2014-1-28,84,69,58,68,61,57,99,78,48,29.84,29.73,8,2,8,0.00
2014-1-29,65,50,43,63,49,43,99,97,91,29.98,29.75,23,6,23,0.32
2014-1-30,50,47,43,50,46,42,99,98,97,29.95,29.86,20,6,20,0.24
2014-1-31,63,55,48,62,55,47,99,99,97,29.91,29.81,12,3,13,0.22
2014-2-1,77,67,58,74,66,58,99,96,87,29.92,29.80,7,2,7,0.04
2014-2-2,89,73,64,76,68,63,99,86,45,29.95,29.84,13,3,13,0.01
2014-2-3,89,73,64,75,67,63,99,83,45,29.91,29.81,10,2,10,0.11
2014-2-4,88,75,65,74,68,64,99,83,53,29.92,29.80,17,5,17,0.00
2014-2-5,88,76,70,73,70,67,94,82,55,29.86,29.74,11,4,11,0.00
2014-2-6,72,58,49,69,57,49,99,94,85,30.02,29.82,17,5,17,0.19
2014-2-7,58,54,49,58,54,49,99,98,96,30.01,29.92,13,5,13,0.21
2014-2-8,58,56,53,58,56,52,99,98,97,29.98,29.87,15,4,15,0.25
2014-2-9,77,60,49,59,53,49,99,80,44,29.96,29.86,11,4,11,0.01
2014-2-10,79,62,48,58,51,44,99,72,31,29.96,29.87,10,2,11,0.00
2014-2-11,86,65,52,62,56,52,99,76,41,29.91,29.83,17,4,17,0.00
2014-2-12,82,67,59,65,60,58,98,81,49,29.88,29.51,25,4,25,0.45
2014-2-13,64,57,45,63,49,41,96,78,56,29.80,29.49,24,8,24,0.01
2014-2-14,71,55,42,48,40,30,99,65,23,29.90,29.75,9,3,9,0.00
2014-2-15,72,60,50,57,44,26,95,63,19,29.96,29.70,18,5,19,0.00
2014-2-16,76,58,43,49,41,24,98,60,18,30.03,29.92,12,3,12,0.00
2014-2-17,82,62,45,48,42,32,88,55,18,30.06,29.84,11,3,11,0.00
2014-2-18,86,67,52,60,53,47,93,64,32,29.92,29.83,15,3,15,0.00
2014-2-19,84,68,58,65,61,55,97,81,42,29.88,29.78,13,3,13,0.00
2014-2-20,88,74,61,68,64,60,98,75,39,29.86,29.75,21,6,21,0.00
2014-2-21,82,73,68,74,69,66,96,87,68,29.76,29.67,14,4,14,0.06
2014-2-22,77,69,63,74,67,61,98,93,85,29.79,29.70,14,3,14,0.39
2014-2-23,87,70,62,75,66,60,99,88,52,29.77,29.65,21,3,21,0.11
2014-2-24,77,69,62,69,64,60,98,86,66,29.77,29.64,10,3,10,0.00
2014-2-25,82,70,61,64,61,57,98,76,45,29.76,29.63,14,3,14,0.00
2014-2-26,71,64,60,65,61,58,98,92,66,29.65,29.40,13,2,13,0.52
2014-2-27,63,57,50,62,52,45,99,84,57,29.64,29.46,18,4,18,0.04
2014-2-28,75,59,46,52,46,39,86,65,31,29.80,29.62,17,4,17,0.00
2014-3-1,80,62,50,60,54,48,99,79,43,29.91,29.75,12,4,12,0.00
2014-3-2,85,68,54,63,59,53,99,75,44,29.91,29.74,17,4,17,0.00
2014-3-3,86,72,58,63,60,56,95,70,40,29.76,29.63,19,4,19,0.00
2014-3-4,83,69,58,67,63,57,97,81,51,29.76,29.65,16,4,16,0.00
2014-3-5,78,64,57,64,59,56,98,86,62,29.76,29.65,14,5,14,0.00
2014-3-6,71,65,59,68,63,57,97,92,79,29.72,29.38,12,3,14,0.13
2014-3-7,62,56,47,60,52,43,99,88,77,29.74,29.45,21,6,21,0.01
2014-3-8,77,60,47,56,50,43,92,72,44,29.84,29.71,16,4,16,0.00
2014-3-9,81,66,51,56,54,49,99,69,35,29.89,29.77,11,3,11,0.00
2014-3-10,83,69,56,57,51,38,87,59,21,29.82,29.65,11,2,11,0.00
2014-3-11,87,71,56,63,56,50,98,65,29,29.69,29.51,11,2,11,0.00
2014-3-12,81,73,66,70,64,58,92,74,51,29.54,29.40,20,6,25,0.08
2014-3-13,72,61,50,61,40,28,87,51,22,29.89,29.51,21,7,21,0.00
2014-3-14,79,62,47,54,47,40,82,62,35,29.97,29.85,23,6,23,0.00
2014-3-15,84,69,54,59,54,48,95,63,30,29.88,29.72,15,4,15,0.00
2014-3-16,88,74,61,64,61,58,93,66,42,29.74,29.44,30,6,30,0.00
2014-3-17,77,73,69,73,68,63,97,86,71,29.47,29.33,17,4,17,0.64
2014-3-18,80,69,60,71,60,52,98,76,40,29.75,29.28,17,6,17,0.52
2014-3-19,85,68,58,62,58,55,93,73,41,29.82,29.70,14,4,14,0.00
2014-3-20,86,70,59,62,60,57,97,73,43,29.78,29.65,16,4,16,0.00
2014-3-21,85,72,62,65,60,56,95,69,39,29.80,29.70,17,6,19,0.00
2014-3-22,88,76,69,69,62,53,90,63,40,29.75,29.63,59,5,59,0.00
2014-3-23,85,73,65,69,64,56,88,73,58,29.73,29.61,18,4,18,0.00
2014-3-24,77,69,64,67,62,58,92,80,64,29.77,29.60,14,5,14,0.00
2014-3-25,77,66,60,62,55,30,95,71,24,29.71,29.51,22,6,22,0.02
2014-3-26,67,54,43,43,30,19,73,41,23,29.99,29.71,21,8,21,0.00
2014-3-27,69,61,49,59,53,42,84,74,61,30.01,29.90,21,5,21,0.00
2014-3-28,85,73,62,66,63,58,91,72,49,29.91,29.70,23,8,23,0.00
2014-3-29,77,71,67,73,68,65,99,92,79,29.74,29.55,18,4,18,0.85
2014-3-30,77,66,56,67,51,40,95,63,27,29.77,29.59,17,5,17,0.00
2014-3-31,82,65,52,55,47,37,90,59,21,29.85,29.74,10,2,10,0.00
2014-4-1,88,70,52,61,52,41,99,62,21,29.89,29.78,14,3,14,0.00
2014-4-2,90,72,0,64,58,50,98,65,27,29.93,29.82,18,4,18,0.00
2014-4-3,91,76,61,67,62,55,95,66,36,29.88,29.74,17,5,17,0.00
2014-4-4,90,77,66,67,64,61,93,66,39,29.80,29.69,17,3,17,0.00
2014-4-5,89,75,65,68,65,61,99,73,41,29.79,29.66,15,3,15,0.00
2014-4-6,93,80,70,69,65,58,90,64,34,29.76,29.64,13,3,13,0.00
2014-4-7,95,81,72,72,68,64,91,67,43,29.67,29.52,16,6,16,0.04
2014-4-8,79,72,64,74,68,58,96,87,80,29.57,29.42,19,5,19,0.31
2014-4-9,78,68,58,58,52,48,93,59,36,29.90,29.57,14,4,14,0.01
2014-4-10,83,69,56,59,55,50,97,66,34,30.01,29.89,21,5,21,0.00
2014-4-11,82,70,59,68,60,54,93,72,50,29.99,29.86,20,5,20,0.01
2014-4-12,86,73,63,66,61,57,97,69,40,29.93,29.84,18,6,18,0.00
2014-4-13,85,75,66,67,64,59,95,72,46,29.88,29.75,21,8,21,0.00
2014-4-14,96,79,68,71,66,56,93,67,34,29.77,29.59,17,4,17,0.00
2014-4-15,91,76,69,72,67,64,94,75,47,29.61,29.54,17,4,17,0.87
2014-4-16,77,68,50,62,58,45,91,71,56,29.88,29.67,22,8,22,0.00
2014-4-17,78,69,60,68,63,58,97,83,64,29.95,29.83,25,8,25,0.00
2014-4-18,83,73,68,73,69,66,97,87,61,29.87,29.64,17,6,17,0.17
2014-4-19,81,71,64,70,64,58,99,78,53,29.69,29.58,14,5,17,0.01
2014-4-20,72,64,60,62,59,58,98,85,64,29.82,29.66,15,6,15,0.01
2014-4-21,77,66,60,63,60,58,94,81,62,29.81,29.69,13,5,14,0.00
2014-4-22,86,71,58,63,60,57,99,73,44,29.71,29.55,14,3,14,0.00
2014-4-23,90,75,63,66,63,60,97,70,40,29.68,29.57,12,3,12,0.00
2014-4-24,94,78,65,70,66,62,98,72,37,29.74,29.62,19,4,19,0.00
2014-4-25,90,78,67,69,65,60,97,68,41,29.74,29.64,15,3,15,0.00
2014-4-26,92,78,68,71,67,62,98,72,39,29.75,29.66,14,4,14,0.00
2014-4-27,98,81,70,74,70,65,97,72,36,29.75,29.63,18,5,18,0.00
2014-4-28,98,83,73,72,69,65,89,66,36,29.70,29.59,18,5,18,0.00
2014-4-29,97,82,70,75,72,69,98,74,43,29.75,29.59,18,6,18,1.09
2014-4-30,93,79,71,77,73,69,98,83,54,29.79,29.67,20,4,20,0.12
2014-5-1,95,80,71,76,72,68,98,79,46,29.74,29.63,16,4,16,0.00
2014-5-2,78,73,70,74,71,68,98,93,80,29.68,29.61,11,2,11,0.48
2014-5-3,76,68,62,74,67,60,99,96,86,29.76,29.61,14,3,14,0.22
2014-5-4,89,72,59,62,56,49,99,64,27,29.81,29.73,17,4,17,0.01
2014-5-5,95,78,62,66,59,55,97,58,27,29.80,29.68,16,4,16,0.00
2014-5-6,95,81,0,66,61,54,90,53,27,29.93,29.71,17,4,17,0.00
2014-5-7,96,82,0,72,66,60,94,61,34,29.97,29.88,21,7,21,0.00
2014-5-8,96,81,71,72,69,63,94,69,35,30.03,29.93,24,8,24,0.00
2014-5-9,96,82,71,73,69,62,95,70,34,30.02,29.89,22,7,22,0.00
2014-5-12,91,82,0,73,69,64,92,66,43,29.96,0.00,21,9,21,0.00
2014-5-13,90,80,72,74,71,68,94,76,49,29.90,29.83,24,9,24,0.00
2014-5-14,90,80,73,77,74,70,97,83,55,29.86,29.74,24,9,24,0.71
2014-5-15,90,78,73,78,74,71,98,90,60,29.81,29.67,17,5,17,1.02
2014-5-16,85,72,62,72,56,43,96,62,26,29.92,29.74,20,6,20,0.00
2014-5-17,86,71,60,60,56,52,93,62,36,29.96,29.90,25,5,25,0.00
2014-5-18,86,73,59,63,60,55,91,64,41,29.97,29.91,22,6,22,0.00
2014-5-19,90,76,63,68,64,58,97,68,37,29.98,29.91,19,6,19,0.00
2014-5-20,88,76,67,70,64,58,97,69,43,30.02,29.94,20,6,20,0.00
2014-5-21,92,78,62,66,63,59,95,64,36,30.00,29.90,15,4,15,0.00
2014-5-22,95,81,68,72,67,64,92,65,43,29.95,29.81,12,3,12,0.00
2014-5-23,98,84,71,73,69,66,93,65,38,29.88,29.78,13,3,13,0.00
2014-5-24,100,86,74,75,71,68,94,65,37,29.87,29.79,14,4,14,0.00
2014-5-25,97,84,76,76,73,68,95,72,41,29.94,29.82,24,6,24,0.00
2014-5-26,93,81,75,75,72,64,95,76,49,29.99,29.91,22,6,22,0.00
2014-5-27,94,80,72,76,71,66,95,76,42,29.96,29.84,21,5,21,0.22
2014-5-28,98,82,72,74,70,64,95,72,35,29.89,29.78,20,5,20,0.01
2014-5-29,97,82,74,75,72,67,95,73,39,29.84,29.75,23,6,23,0.00
2014-5-30,93,80,71,78,72,68,96,80,46,29.83,29.76,17,5,17,0.09
2014-5-31,77,77,76,74,74,74,93,92,90,29.83,29.81,7,2,7,0.00
2014-6-2,86,79,0,74,68,66,87,68,53,29.96,0.00,24,11,24,0.86
2014-6-3,86,77,69,70,67,65,92,73,54,29.92,29.82,18,5,18,0.00
2014-6-4,93,80,68,71,66,62,96,66,39,29.84,29.73,17,4,17,0.00
2014-6-5,96,82,69,72,68,64,93,64,38,29.80,29.69,14,4,14,0.00
2014-6-6,97,85,73,74,71,69,89,66,42,29.81,29.71,17,3,17,0.00
2014-6-7,99,85,77,75,71,66,87,67,42,29.83,29.64,17,4,17,0.00
2014-6-8,98,82,73,76,72,69,97,75,43,29.83,29.70,27,3,27,0.28
2014-6-9,98,81,71,78,73,70,97,78,44,29.82,29.72,17,3,17,0.04
2014-6-10,102,82,72,79,74,68,98,81,36,29.87,29.74,42,3,42,0.17
2014-6-11,93,76,69,78,72,68,99,90,55,29.83,29.74,27,3,30,1.38
2014-6-12,93,75,68,76,71,67,99,89,49,29.85,29.73,30,3,30,0.43
2014-6-13,88,77,70,79,73,69,98,88,62,29.86,26.77,17,2,17,0.47
2014-6-14,90,76,72,77,72,70,99,89,55,29.91,29.80,14,2,14,0.66
2014-6-15,97,79,70,76,72,68,99,80,44,29.97,29.87,29,3,29,0.05
2014-6-16,92,80,71,75,72,67,99,78,52,30.00,29.90,17,3,17,0.01
2014-6-17,94,82,72,76,71,67,98,71,46,29.99,29.89,20,5,20,0.00
2014-6-18,93,84,0,77,73,69,95,70,47,29.95,0.00,26,8,26,0.02
2014-6-19,93,82,0,78,73,68,98,77,46,29.96,0.00,23,5,23,0.19
2014-6-20,96,82,74,77,73,70,93,76,45,29.96,29.83,15,4,15,0.01
2014-6-21,96,84,74,78,73,68,97,72,43,29.87,29.76,15,4,15,0.00
2014-6-22,94,82,76,77,74,71,94,75,53,29.85,29.77,20,4,20,0.00
2014-6-23,100,82,75,77,74,72,93,79,43,29.95,29.81,16,3,16,0.01
2014-6-24,101,85,76,78,74,71,95,74,41,30.00,29.90,22,3,22,0.01
2014-6-25,100,86,72,79,74,69,98,73,39,30.01,29.88,14,3,14,0.98
2014-6-26,98,81,72,80,75,70,99,83,45,29.98,29.82,19,3,19,0.74
2014-6-27,98,81,74,78,74,71,99,83,46,29.97,29.88,21,3,21,0.51
2014-6-28,100,86,74,77,73,66,96,70,36,30.00,29.92,26,3,26,0.00
2014-6-29,98,86,78,77,74,71,89,71,42,29.99,29.89,15,4,16,0.00
2014-6-30,93,83,77,82,76,73,97,80,53,29.92,29.78,22,5,22,0.08
2014-7-1,96,84,76,78,75,72,99,78,47,29.81,29.73,21,6,21,0.00
2014-7-2,91,82,75,78,75,73,96,81,59,29.79,29.72,14,4,14,0.00
2014-7-3,98,83,77,79,75,72,93,79,45,29.94,29.78,15,3,15,0.06
2014-7-4,92,81,75,80,75,72,96,83,59,29.98,29.87,13,3,13,0.24
2014-7-5,97,82,73,78,74,70,99,81,46,29.99,29.90,30,4,30,0.77
2014-7-6,92,76,72,80,74,72,99,94,60,29.96,29.89,17,3,17,0.63
2014-7-7,95,81,72,80,75,71,99,81,54,29.99,29.89,17,2,17,0.00
2014-7-8,98,83,75,78,75,71,98,78,43,30.01,29.91,22,3,22,0.05
2014-7-9,98,80,73,78,75,72,99,87,45,30.00,29.91,18,2,18,0.39
2014-7-10,96,80,73,78,74,72,99,86,47,29.99,29.88,19,3,19,0.78
2014-7-11,94,81,74,82,75,72,99,84,51,30.02,29.93,17,4,17,0.31
2014-7-12,101,81,74,80,74,71,99,83,41,30.01,29.95,36,4,36,0.06
2014-7-13,99,81,73,80,75,72,99,85,45,30.00,29.91,21,3,21,0.64
2014-7-14,97,83,76,80,76,73,98,83,48,29.96,29.87,16,3,16,0.04
2014-7-22,100,85,0,79,76,73,97,73,45,29.93,0.00,22,5,22,2.98
2014-7-23,98,85,75,80,75,70,99,76,42,29.95,29.85,13,3,13,0.00
2014-7-24,100,84,78,79,76,72,95,79,43,29.92,29.82,15,2,15,0.30
2014-7-25,99,82,75,80,76,72,97,86,47,29.95,29.87,13,2,17,0.84
2014-7-26,98,83,76,80,76,73,98,81,48,29.97,29.89,18,2,18,0.01
2014-7-27,96,86,77,80,77,74,97,76,53,29.97,29.89,13,3,13,0.00
2014-7-28,96,87,80,79,77,74,90,73,52,29.92,29.80,17,4,17,0.00
2014-7-29,95,82,76,80,77,73,97,85,57,29.87,29.77,16,4,16,1.05
2014-7-30,97,86,75,77,72,66,99,68,37,29.85,29.78,11,3,11,0.00
2014-7-31,98,86,76,79,76,72,95,73,46,29.85,29.78,12,3,12,0.00
2014-8-1,98,86,77,77,74,70,88,68,44,29.86,29.79,115,4,115,0.00
2014-8-2,99,86,79,79,76,72,93,74,44,29.85,29.77,20,6,20,0.00
2014-8-3,95,84,79,80,77,75,93,80,54,29.83,29.73,17,4,17,0.00
2014-8-4,94,82,77,80,77,75,96,84,54,29.83,29.73,20,3,20,0.04
2014-8-5,96,83,75,79,76,74,98,80,53,29.92,29.80,14,3,14,0.01
2014-8-6,100,85,77,80,76,72,97,77,43,29.93,29.83,25,3,25,0.27
2014-8-7,96,82,77,82,77,73,97,84,55,29.89,29.79,23,3,23,0.40
2014-8-8,100,83,74,79,76,72,99,81,42,29.93,29.81,30,3,30,0.90
2014-8-9,97,82,75,78,76,73,99,83,51,29.94,29.85,19,2,19,0.12
2014-8-10,96,82,77,79,76,72,95,81,52,29.93,29.85,14,3,14,0.01
2014-8-11,93,82,74,79,76,72,98,83,61,29.90,29.84,17,3,17,0.27
2014-8-12,95,82,74,80,75,73,98,82,52,29.88,29.80,14,3,14,0.13
2014-8-13,98,87,76,78,75,71,95,70,45,29.89,29.81,20,3,20,0.00
2014-8-14,97,85,76,80,76,71,94,76,50,29.89,29.82,15,3,15,0.00
2014-8-15,88,81,77,80,75,72,94,82,69,29.91,29.83,12,2,12,0.01
2014-8-16,97,81,75,79,75,72,96,84,50,29.96,29.86,17,2,17,0.01
2014-8-17,102,86,74,79,75,71,99,73,42,29.99,29.89,16,2,16,0.00
2014-8-18,100,86,78,80,76,72,94,74,44,29.94,29.82,15,2,15,0.04
2014-8-19,101,88,77,79,75,71,95,69,42,29.91,29.81,13,3,13,0.00
2014-8-20,100,88,78,80,75,71,95,67,41,29.96,29.85,12,2,12,0.00
2014-8-21,104,87,76,80,75,68,95,71,37,30.00,29.89,22,3,22,0.24
2014-8-22,103,86,76,79,75,71,97,73,37,29.95,29.84,12,2,13,0.00
2014-8-23,103,87,76,78,75,70,91,69,42,29.87,29.72,13,3,13,0.00
2014-8-24,102,86,78,80,77,73,91,75,42,29.75,29.64,21,4,21,0.01
2014-8-25,88,81,78,78,77,74,95,87,65,29.71,29.66,22,5,22,0.00
2014-8-26,94,86,75,77,73,68,97,67,48,29.83,29.72,23,8,23,0.01
2014-8-27,96,84,74,76,73,70,96,74,45,29.87,29.78,18,6,18,0.00
2014-8-28,99,86,74,77,74,71,92,69,42,29.88,29.80,19,6,19,0.00
2014-8-29,96,81,74,79,76,73,99,86,53,29.99,29.85,23,4,23,0.90
2014-8-30,95,80,74,80,76,74,99,89,54,30.01,29.94,11,3,11,0.00
2014-9-2,99,91,0,79,74,71,86,59,42,29.94,0.00,20,6,20,0.20
2014-9-3,96,85,76,78,74,71,95,73,47,29.91,29.81,21,6,22,0.01
2014-9-4,97,81,76,77,75,71,96,83,44,29.95,29.87,17,4,17,0.09
2014-9-5,97,80,74,78,75,71,99,87,48,29.97,29.87,16,3,24,0.20
2014-9-6,95,79,73,80,75,72,99,89,52,29.91,29.80,29,3,29,0.20
2014-9-7,96,79,73,79,76,71,99,89,54,29.89,29.79,21,3,21,0.60
2014-9-8,98,83,0,78,75,18,99,79,45,29.97,0.00,30,3,30,0.23
2014-9-9,98,82,75,79,74,70,97,80,42,29.98,29.86,15,4,15,0.08
2014-9-10,94,81,74,80,76,73,99,84,53,29.95,29.86,18,4,18,0.06
2014-9-11,95,87,0,79,75,71,98,67,49,29.94,0.00,18,5,18,0.06
2014-9-12,89,83,0,80,77,74,97,81,64,29.94,0.00,17,6,17,0.24
2014-9-13,97,86,77,77,74,70,94,68,45,30.03,29.91,18,7,18,0.00
2014-9-14,97,84,76,76,73,70,92,73,43,30.08,29.99,15,5,16,0.00
2014-9-15,97,83,75,76,74,71,97,74,44,30.11,30.00,14,3,14,0.00
2014-9-16,93,82,77,77,74,70,93,78,48,30.07,29.89,14,3,14,0.00
2014-9-17,87,80,75,76,74,73,95,82,65,29.89,29.78,10,2,10,0.00
2014-9-18,97,82,74,78,74,70,99,79,45,29.87,29.78,13,3,13,0.08
2014-9-20,87,76,0,76,72,70,99,86,64,30.00,0.00,17,4,17,0.49
2014-9-21,94,79,71,76,72,70,98,82,50,30.05,29.94,12,3,12,0.06
2014-9-22,92,78,72,78,74,70,98,89,54,30.06,29.97,17,3,17,0.24
2014-9-23,91,77,72,78,73,71,98,88,57,30.05,29.96,16,3,16,2.52
2014-9-24,85,76,71,76,72,69,99,88,68,30.13,30.01,14,4,14,0.01
2014-9-25,90,76,69,79,72,68,98,87,62,30.14,30.02,14,5,14,0.05
2014-9-26,90,77,72,78,74,70,97,90,62,30.04,29.98,21,3,21,0.32
2014-9-27,90,78,72,80,75,72,99,91,62,30.03,29.97,17,4,17,0.34
2014-9-28,91,80,75,80,76,73,99,89,58,30.04,29.92,21,3,21,0.43
2014-9-29,94,78,74,78,74,71,98,89,51,29.99,29.84,14,3,14,0.94
2014-9-30,89,78,74,78,75,73,99,92,65,29.88,29.81,12,2,12,0.19
2014-10-1,83,77,73,78,75,72,98,92,81,30.00,29.86,12,3,12,0.22
2014-10-2,95,81,73,80,74,72,99,81,50,30.06,29.97,12,3,12,0.01
2014-10-3,97,82,74,78,74,72,97,80,47,30.06,29.92,10,2,10,0.14
2014-10-4,89,78,69,76,70,58,97,78,53,29.96,29.83,14,3,14,0.02
2014-10-5,83,70,58,58,54,47,76,59,38,30.08,29.94,13,5,13,0.00
2014-10-6,88,73,60,66,61,55,91,69,43,30.12,30.02,14,4,14,0.00
2014-10-7,91,78,70,72,68,65,90,73,49,30.13,30.04,13,3,13,0.00
2014-10-8,96,82,73,75,71,67,96,73,43,30.17,30.05,12,3,12,0.00
2014-10-9,92,79,70,75,71,68,97,77,48,30.14,30.04,18,4,18,0.00
2014-10-10,93,81,71,76,70,64,98,73,44,30.10,30.01,17,5,17,0.00
2014-10-11,95,80,70,76,71,68,97,76,44,30.08,29.99,17,4,17,0.00
2014-10-12,94,80,71,77,71,68,98,77,47,30.10,30.02,22,4,22,0.00
2014-10-13,93,81,71,73,70,67,94,73,47,30.13,30.02,22,7,22,0.00
2014-10-14,94,80,74,78,73,72,97,81,53,30.06,29.92,22,6,22,0.25
2014-10-15,86,77,67,74,68,60,98,77,53,29.99,29.91,13,4,13,0.01
2014-10-16,84,72,62,65,60,55,96,69,46,29.99,29.88,16,3,16,0.00
2014-10-17,87,72,60,61,59,56,90,66,40,30.03,29.93,12,2,12,0.00
2014-10-18,87,73,60,65,61,58,98,71,38,30.01,29.91,13,2,13,0.00
2014-10-19,88,73,64,68,65,62,99,78,49,30.06,29.97,14,4,14,0.00
2014-10-20,92,77,66,72,67,64,97,76,42,30.08,29.95,12,3,12,0.00
2014-10-21,90,78,71,73,70,66,93,78,50,29.99,29.91,8,2,8,0.00
2014-10-22,89,75,66,70,65,59,99,73,38,30.02,29.92,16,4,16,0.00
2014-10-23,85,71,60,62,59,56,90,67,39,30.03,29.93,19,5,19,0.00
2014-10-24,84,70,61,63,59,56,85,69,45,30.02,29.91,17,5,17,0.00
2014-10-25,85,70,61,62,58,55,88,68,43,30.02,29.94,10,4,11,0.00
2014-10-26,87,70,56,62,57,52,98,69,34,30.05,29.95,12,2,12,0.00
2014-10-27,89,73,59,67,62,58,97,71,37,30.12,30.01,14,4,14,0.00
2014-10-28,90,75,64,71,66,62,99,75,42,30.19,30.08,14,3,14,0.00
2014-10-29,92,77,65,73,65,60,99,72,37,30.13,29.99,11,2,11,0.00
2014-10-30,88,76,66,70,66,62,97,73,48,30.02,29.87,9,2,9,0.00
2014-10-31,82,72,62,67,58,45,93,65,30,29.90,29.79,14,4,14,0.00
2014-11-1,64,58,50,54,40,25,83,54,26,30.16,29.86,28,6,28,0.00
2014-11-2,70,55,42,44,40,35,86,61,31,30.31,30.16,12,4,12,0.00
2014-11-3,77,62,47,56,50,41,86,67,45,30.38,30.26,22,5,22,0.00
2014-11-4,82,68,55,63,58,54,97,74,41,30.33,30.21,21,5,21,0.00
2014-11-5,85,72,61,68,63,59,98,76,45,30.26,30.14,17,4,17,0.00
2014-11-6,88,73,62,70,63,60,99,74,42,30.17,29.98,13,2,13,0.00
2014-11-7,79,68,56,67,58,49,99,73,40,30.02,29.93,12,4,15,0.00
2014-11-8,83,66,54,65,58,51,97,78,52,30.00,29.86,13,3,13,0.05
2014-11-9,70,63,58,63,60,58,99,90,73,29.95,29.85,11,4,11,0.25
2014-11-10,69,64,60,66,62,56,98,92,83,29.97,29.91,16,4,16,0.08
2014-11-11,82,68,58,66,60,54,88,75,52,29.97,29.87,24,4,24,0.00
2014-11-12,82,68,56,59,56,51,96,68,42,30.07,29.95,9,2,9,0.00
2014-11-13,86,70,57,63,59,53,98,71,38,30.08,29.97,7,2,8,0.00
2014-11-14,72,63,0,64,58,49,99,84,63,30.03,29.91,9,3,9,0.00
2014-11-15,78,62,48,63,56,46,97,81,56,30.11,29.99,12,4,12,0.00
2014-11-16,87,70,56,69,63,56,99,81,49,30.08,29.92,14,3,14,0.00
2014-11-17,85,72,67,74,70,67,99,92,65,29.91,29.76,15,3,15,0.74
2014-11-18,68,51,44,68,45,34,99,81,60,30.17,29.82,19,5,19,0.04
2014-11-19,62,48,39,50,41,32,95,77,59,30.23,30.12,15,6,15,0.00
2014-11-20,67,54,42,50,43,33,91,70,39,30.15,30.06,13,4,13,0.00
2014-11-21,76,63,52,59,53,43,83,69,48,30.16,30.05,24,6,24,0.00
2014-11-22,71,68,64,68,65,59,98,90,82,30.15,27.11,19,7,19,0.08
2014-11-23,87,77,70,75,72,68,98,86,61,29.97,29.73,24,7,24,0.02
2014-11-24,91,80,74,76,72,69,96,80,52,29.90,29.77,10,3,10,0.00
2014-11-25,74,72,68,74,71,68,99,96,89,29.89,29.73,16,3,16,3.20
2014-11-26,72,58,49,71,56,49,99,93,68,30.06,29.70,23,4,23,0.22
2014-11-27,71,57,45,55,46,39,99,70,37,30.14,30.03,16,4,16,0.01
2014-11-28,64,52,42,46,42,35,89,70,44,30.19,30.11,15,5,15,0.00
2014-11-29,74,58,45,58,51,43,99,80,50,30.18,30.10,11,4,11,0.00
2014-11-30,80,64,52,63,57,51,99,80,48,30.20,30.11,17,4,17,0.00
2014-12-1,80,68,56,68,62,56,99,82,59,30.21,30.10,21,5,21,0.00
2014-12-2,79,70,63,69,65,62,99,85,68,30.12,30.02,23,5,23,0.00
2014-12-3,84,70,62,70,64,61,99,84,52,30.09,30.00,19,4,19,0.00
2014-12-4,84,71,63,68,65,62,99,82,54,30.10,30.01,18,5,18,0.00
2014-12-5,82,71,65,70,67,65,98,87,63,30.14,30.06,17,4,17,0.00
2014-12-6,85,73,66,72,68,66,99,84,56,30.10,29.97,11,2,11,0.04
2014-12-7,75,66,59,66,62,56,99,88,67,30.00,29.92,14,5,14,0.06
2014-12-8,66,60,54,65,60,52,99,97,92,29.99,29.91,15,6,15,0.05
2014-12-9,68,56,49,52,48,43,93,76,51,29.95,29.86,13,5,13,0.00
2014-12-10,66,55,43,47,44,39,91,69,39,30.01,29.92,13,3,13,0.00
2014-12-11,66,53,42,49,45,42,99,78,49,30.06,29.94,14,2,14,0.00
2014-12-12,65,51,44,48,43,39,93,77,43,30.13,30.02,7,2,8,0.00
2014-12-13,73,53,42,49,42,30,99,72,21,30.06,29.95,11,2,11,0.00
2014-12-14,64,48,42,47,43,41,95,86,46,29.96,29.91,5,1,5,0.00
2014-12-15,76,61,0,54,44,26,99,59,18,29.99,0.00,8,2,8,0.00
2014-12-16,79,59,44,58,50,44,99,76,34,30.05,29.96,9,2,9,0.00
2014-12-17,76,64,52,59,53,46,99,72,37,30.07,29.95,10,2,10,0.00
2014-12-18,74,58,46,53,49,46,98,76,42,30.03,29.94,9,2,9,0.00
2014-12-19,75,60,51,56,49,32,99,71,24,30.00,29.91,8,2,8,0.00
2014-12-20,82,66,54,64,59,52,99,80,49,29.99,29.89,14,2,14,0.00
2014-12-21,85,70,62,67,64,62,99,86,52,29.98,29.86,12,3,12,0.37
2014-12-22,80,71,65,70,68,65,99,90,71,29.92,29.77,11,3,11,0.13
2014-12-23,84,74,68,73,69,67,99,86,62,29.85,29.74,17,5,17,0.00
2014-12-24,86,76,64,73,71,62,97,83,62,29.85,29.68,18,7,18,0.24
2014-12-25,65,60,52,63,53,49,96,80,59,30.10,29.81,11,3,11,0.00
2014-12-26,72,62,51,63,57,51,99,86,66,30.11,30.04,8,3,8,0.00
2014-12-27,86,72,62,70,66,60,96,83,52,30.13,30.01,12,3,12,0.00
2014-12-28,87,74,66,77,68,64,99,83,48,30.05,29.95,8,2,8,0.00
2014-12-29,86,72,63,71,66,62,99,82,55,30.01,29.90,11,2,11,0.00
2014-12-30,71,66,61,70,66,60,99,97,94,30.12,29.94,11,2,11,0.32
2014-12-31,63,61,59,62,60,57,98,95,90,30.18,30.04,15,5,15,0.08
2015-1-1,74,64,59,68,62,57,98,91,77,30.14,30.02,10,4,10,0.00
2015-1-2,83,69,60,73,65,60,99,91,66,30.15,30.05,16,4,16,0.00